Time;durP1;ratioP1;P1;durP2;ratioP2;P2;SDS_P1;SDS_P2;PMS_P1;PMS_P2;Temp;Humidity;BMP_temperature;BMP_pressure;BME280_temperature;BME280_humidity;BME280_pressure;Samples;Min_cycle;Max_cycle;Signal;HPM_P1;HPM_P2
2022/01/02 00:01:04;;;;;;;38.05;17.73;;;;;;;;;;4990382;28;19986;-94
2022/01/02 00:03:35;;;;;;;33.90;17.50;;;;;;;;;;4993320;28;20023;-94
2022/01/02 00:20:11;;;;;;;29.33;15.55;;;;;;;;;;5098957;23;20066;-93
2022/01/02 00:22:40;;;;;;;33.85;16.08;;;;;;;;;;4991270;28;20046;-94
2022/01/02 00:25:27;;;;;;;37.55;18.00;;;;;;;;;;4977075;28;20030;-94
2022/01/02 00:30:09;;;;;;;34.67;16.65;;;;;;;;;;5059939;23;20054;-93
2022/01/02 00:32:38;;;;;;;39.83;17.30;;;;;;;;;;4993834;28;20057;-94
2022/01/02 00:35:08;;;;;;;43.20;19.13;;;;;;;;;;4972697;28;20094;-94
2022/01/02 00:37:50;;;;;;;34.28;18.08;;;;;;;;;;5028546;23;20128;-94
2022/01/02 00:40:27;;;;;;;45.72;20.52;;;;;;;;;;4970291;28;20053;-94
2022/01/02 00:42:56;;;;;;;34.70;18.23;;;;;;;;;;4969520;28;20066;-93
2022/01/02 00:45:22;;;;;;;34.25;18.20;;;;;;;;;;4973376;28;20085;-94
2022/01/02 00:47:59;;;;;;;33.88;19.27;;;;;;;;;;4968796;28;20018;-94
2022/01/02 00:50:29;;;;;;;40.22;18.65;;;;;;;;;;4968582;28;20087;-93
2022/01/02 00:52:57;;;;;;;38.35;19.02;;;;;;;;;;4968999;28;20117;-94
2022/01/02 00:55:26;;;;;;;28.58;16.55;;;;;;;;;;4986278;28;20015;-94
2022/01/02 00:58:00;;;;;;;42.05;17.80;;;;;;;;;;4986506;28;20030;-93
2022/01/02 01:00:27;;;;;;;36.17;17.75;;;;;;;;;;4969336;28;20122;-94
2022/01/02 01:02:55;;;;;;;33.72;16.80;;;;;;;;;;4970454;28;20027;-93
2022/01/02 01:05:23;;;;;;;33.00;18.08;;;;;;;;;;4970945;28;20026;-93
2022/01/02 01:07:53;;;;;;;36.33;18.58;;;;;;;;;;4965554;28;20019;-93
2022/01/02 01:10:19;;;;;;;26.75;15.93;;;;;;;;;;4963896;28;20030;-93
2022/01/02 01:12:48;;;;;;;32.58;18.05;;;;;;;;;;4972141;28;20494;-93
2022/01/02 01:15:14;;;;;;;32.53;17.65;;;;;;;;;;4974537;28;20007;-93
2022/01/02 01:17:40;;;;;;;33.75;16.90;;;;;;;;;;4974016;28;20057;-93
2022/01/02 01:20:07;;;;;;;32.67;17.98;;;;;;;;;;4965288;28;20038;-93
2022/01/02 01:22:32;;;;;;;32.83;18.27;;;;;;;;;;4967556;28;20106;-93
2022/01/02 01:24:58;;;;;;;40.85;18.67;;;;;;;;;;4966819;28;20058;-93
2022/01/02 01:27:24;;;;;;;29.35;17.27;;;;;;;;;;4966767;28;20041;-93
2022/01/02 01:29:50;;;;;;;30.75;17.58;;;;;;;;;;4966344;28;20022;-93
2022/01/02 01:32:15;;;;;;;33.00;18.08;;;;;;;;;;4965102;28;20029;-93
2022/01/02 01:34:41;;;;;;;31.80;17.02;;;;;;;;;;4966797;28;20027;-93
2022/01/02 01:37:07;;;;;;;31.27;19.23;;;;;;;;;;4966644;28;20118;-93
2022/01/02 01:39:32;;;;;;;34.30;17.98;;;;;;;;;;4963892;28;20079;-94
2022/01/02 01:42:06;;;;;;;34.63;17.33;;;;;;;;;;4971883;29;20023;-93
2022/01/02 01:44:52;;;;;;;34.95;19.58;;;;;;;;;;4967810;28;20031;-93
2022/01/02 01:47:18;;;;;;;30.83;15.93;;;;;;;;;;4959602;29;20019;-93
2022/01/02 01:49:43;;;;;;;32.92;18.50;;;;;;;;;;4965061;28;20019;-93
2022/01/02 01:52:09;;;;;;;32.92;18.25;;;;;;;;;;4959767;29;20113;-93
2022/01/02 01:54:34;;;;;;;31.38;16.92;;;;;;;;;;4958869;28;20070;-93
2022/01/02 01:57:01;;;;;;;29.70;17.13;;;;;;;;;;4960303;29;20047;-93
2022/01/02 01:59:27;;;;;;;30.50;16.55;;;;;;;;;;4960161;28;20074;-93
2022/01/02 02:01:52;;;;;;;33.00;16.23;;;;;;;;;;4960965;29;20023;-93
2022/01/02 02:04:18;;;;;;;35.88;17.90;;;;;;;;;;4958219;28;20695;-93
2022/01/02 02:06:43;;;;;;;33.03;17.80;;;;;;;;;;4958278;29;20035;-93
2022/01/02 02:09:09;;;;;;;32.22;16.92;;;;;;;;;;4958080;28;20023;-94
2022/01/02 02:11:38;;;;;;;43.50;18.25;;;;;;;;;;4958464;29;20640;-94
2022/01/02 02:14:06;;;;;;;31.40;16.05;;;;;;;;;;4958821;28;20106;-94
2022/01/02 02:16:32;;;;;;;31.45;16.65;;;;;;;;;;4960366;29;20027;-94
2022/01/02 02:18:57;;;;;;;37.47;17.40;;;;;;;;;;4961659;28;20468;-93
2022/01/02 02:21:26;;;;;;;31.05;16.40;;;;;;;;;;4959564;29;20023;-94
2022/01/02 02:23:51;;;;;;;39.20;16.90;;;;;;;;;;4960189;28;20019;-93
2022/01/02 02:26:16;;;;;;;32.13;15.63;;;;;;;;;;4959740;29;20042;-93
2022/01/02 02:28:42;;;;;;;36.63;16.13;;;;;;;;;;4959388;28;20019;-94
2022/01/02 02:31:07;;;;;;;30.95;16.98;;;;;;;;;;4958253;29;20056;-93
2022/01/02 02:33:32;;;;;;;28.33;16.00;;;;;;;;;;4958904;28;20023;-94
2022/01/02 02:35:58;;;;;;;35.83;16.98;;;;;;;;;;4959371;29;20047;-94
2022/01/02 02:38:23;;;;;;;30.67;15.98;;;;;;;;;;4957578;28;20138;-93
2022/01/02 02:40:48;;;;;;;36.95;14.73;;;;;;;;;;4958064;29;20665;-93
2022/01/02 02:43:27;;;;;;;31.58;15.18;;;;;;;;;;4958509;28;20023;-93
2022/01/02 02:51:26;;;;;;;25.52;14.10;;;;;;;;;;4958802;29;20077;-93
2022/01/02 02:53:52;;;;;;;32.75;14.95;;;;;;;;;;4956856;28;20054;-93
2022/01/02 02:56:23;;;;;;;36.95;16.00;;;;;;;;;;4957983;29;20031;-93
2022/01/02 02:58:50;;;;;;;31.50;14.88;;;;;;;;;;4957568;28;20066;-93
2022/01/02 03:01:16;;;;;;;40.70;16.27;;;;;;;;;;4960482;29;20027;-93
2022/01/02 03:03:45;;;;;;;30.67;14.88;;;;;;;;;;4958930;28;20050;-94
2022/01/02 03:06:23;;;;;;;30.45;16.05;;;;;;;;;;4961821;28;20034;-94
2022/01/02 03:08:49;;;;;;;37.70;16.48;;;;;;;;;;4963349;28;20011;-94
2022/01/02 03:11:18;;;;;;;29.98;14.60;;;;;;;;;;4966009;28;20408;-93
2022/01/02 03:13:44;;;;;;;28.25;14.50;;;;;;;;;;4960800;28;20031;-94
2022/01/02 03:16:09;;;;;;;30.45;17.17;;;;;;;;;;4962115;28;20082;-94
2022/01/02 03:18:35;;;;;;;35.70;16.23;;;;;;;;;;4963093;28;20027;-94
2022/01/02 03:21:01;;;;;;;30.38;14.68;;;;;;;;;;4965621;29;20038;-94
2022/01/02 03:23:26;;;;;;;32.08;16.27;;;;;;;;;;4965033;28;20027;-94
2022/01/02 03:25:52;;;;;;;40.25;15.60;;;;;;;;;;4964564;29;20019;-94
2022/01/02 03:28:17;;;;;;;30.05;16.35;;;;;;;;;;4970091;28;20391;-93
2022/01/02 03:30:43;;;;;;;36.47;16.52;;;;;;;;;;4972163;29;20479;-94
2022/01/02 03:33:12;;;;;;;40.25;16.35;;;;;;;;;;4965217;28;20057;-94
2022/01/02 03:35:38;;;;;;;38.17;16.25;;;;;;;;;;4967532;29;20058;-94
2022/01/02 03:38:04;;;;;;;33.72;14.63;;;;;;;;;;4968877;28;20059;-94
2022/01/02 03:40:29;;;;;;;30.38;15.02;;;;;;;;;;4970705;28;20098;-94
2022/01/02 03:42:55;;;;;;;38.25;16.77;;;;;;;;;;4968073;28;20022;-94
2022/01/02 03:45:20;;;;;;;35.55;15.52;;;;;;;;;;4968690;28;20046;-94
2022/01/02 03:47:46;;;;;;;39.83;16.13;;;;;;;;;;4962012;28;20123;-94
2022/01/02 03:50:13;;;;;;;33.15;15.30;;;;;;;;;;4958665;29;20035;-93
2022/01/02 03:52:39;;;;;;;32.40;15.32;;;;;;;;;;4957792;29;20019;-93
2022/01/02 03:55:04;;;;;;;39.58;15.98;;;;;;;;;;4957695;28;20851;-93
2022/01/02 03:57:29;;;;;;;34.80;15.43;;;;;;;;;;4955798;29;20041;-93
2022/01/02 03:59:55;;;;;;;29.75;15.82;;;;;;;;;;4959606;28;20027;-93
2022/01/02 04:02:20;;;;;;;38.58;17.25;;;;;;;;;;4959028;29;20027;-93
2022/01/02 04:04:45;;;;;;;31.65;15.20;;;;;;;;;;4956309;28;20027;-93
2022/01/02 04:07:11;;;;;;;51.47;19.38;;;;;;;;;;4962176;29;20023;-94
2022/01/02 04:09:36;;;;;;;32.53;16.95;;;;;;;;;;4965738;28;20034;-94
2022/01/02 04:12:02;;;;;;;37.60;17.70;;;;;;;;;;4963450;29;20027;-94
2022/01/02 04:14:27;;;;;;;39.30;15.38;;;;;;;;;;4965549;28;20031;-94
2022/01/02 04:16:53;;;;;;;36.45;16.40;;;;;;;;;;4960509;29;20023;-93
2022/01/02 04:19:18;;;;;;;30.88;16.02;;;;;;;;;;4962888;28;20015;-93
2022/01/02 04:21:43;;;;;;;35.08;17.23;;;;;;;;;;4960334;29;20038;-93
2022/01/02 04:24:08;;;;;;;43.97;18.60;;;;;;;;;;4959525;28;20059;-93
2022/01/02 04:26:34;;;;;;;38.13;17.25;;;;;;;;;;4958699;28;20019;-94
2022/01/02 04:28:59;;;;;;;37.10;16.50;;;;;;;;;;4965651;28;20031;-93
2022/01/02 04:31:24;;;;;;;31.73;17.63;;;;;;;;;;4963460;29;20015;-93
2022/01/02 04:33:50;;;;;;;27.98;15.95;;;;;;;;;;4961700;28;20554;-93
2022/01/02 04:36:15;;;;;;;32.75;16.15;;;;;;;;;;4961882;29;20020;-93
2022/01/02 04:38:42;;;;;;;34.15;16.77;;;;;;;;;;4958852;28;20067;-93
2022/01/02 04:41:07;;;;;;;27.08;14.88;;;;;;;;;;4960839;29;20023;-94
2022/01/02 04:43:33;;;;;;;31.73;16.58;;;;;;;;;;4961412;28;20061;-93
2022/01/02 04:45:58;;;;;;;28.95;16.40;;;;;;;;;;4958941;29;20031;-94
2022/01/02 04:48:23;;;;;;;34.33;16.65;;;;;;;;;;4961601;28;20099;-93
2022/01/02 04:50:49;;;;;;;35.67;16.98;;;;;;;;;;4958107;29;20023;-93
2022/01/02 04:53:14;;;;;;;42.78;15.75;;;;;;;;;;4959287;28;20024;-94
2022/01/02 04:55:40;;;;;;;39.63;16.98;;;;;;;;;;4959947;29;20035;-93
2022/01/02 04:58:05;;;;;;;30.02;16.55;;;;;;;;;;4963813;28;20007;-93
2022/01/02 05:00:30;;;;;;;34.20;16.60;;;;;;;;;;4959241;29;20023;-93
2022/01/02 05:02:55;;;;;;;37.20;17.02;;;;;;;;;;4959811;28;20027;-93
2022/01/02 05:05:21;;;;;;;40.63;17.58;;;;;;;;;;4961772;29;20035;-93
2022/01/02 05:07:46;;;;;;;31.33;17.05;;;;;;;;;;4957670;28;20019;-93
2022/01/02 05:10:11;;;;;;;40.10;17.40;;;;;;;;;;4960379;28;20131;-93
2022/01/02 05:12:37;;;;;;;39.40;17.00;;;;;;;;;;4960879;29;20057;-93
2022/01/02 05:15:02;;;;;;;33.10;15.75;;;;;;;;;;4957642;28;20110;-93
2022/01/02 05:17:28;;;;;;;36.63;16.05;;;;;;;;;;4959411;29;20062;-93
2022/01/02 05:19:53;;;;;;;29.38;16.02;;;;;;;;;;4955779;28;20031;-93
2022/01/02 05:22:19;;;;;;;38.65;17.10;;;;;;;;;;4955161;29;20019;-93
2022/01/02 05:24:44;;;;;;;38.08;17.80;;;;;;;;;;4957948;28;20105;-93
2022/01/02 05:27:09;;;;;;;46.05;17.08;;;;;;;;;;4957466;29;20019;-93
2022/01/02 05:29:35;;;;;;;33.10;17.02;;;;;;;;;;4956121;28;20062;-93
2022/01/02 05:32:00;;;;;;;33.85;17.27;;;;;;;;;;4955854;29;20063;-93
2022/01/02 05:34:25;;;;;;;35.40;17.85;;;;;;;;;;4968147;28;20035;-93
2022/01/02 05:36:50;;;;;;;32.63;16.00;;;;;;;;;;4959385;28;20086;-93
2022/01/02 05:39:17;;;;;;;38.35;16.17;;;;;;;;;;4962139;28;20062;-93
2022/01/02 05:41:42;;;;;;;37.90;15.73;;;;;;;;;;4960623;29;20035;-93
2022/01/02 05:44:08;;;;;;;31.20;18.02;;;;;;;;;;4970709;28;20038;-93
2022/01/02 05:46:33;;;;;;;37.75;17.02;;;;;;;;;;4962373;29;20114;-94
2022/01/02 05:48:58;;;;;;;43.85;18.25;;;;;;;;;;4960996;28;20054;-94
2022/01/02 05:51:24;;;;;;;37.42;16.15;;;;;;;;;;4957522;29;20627;-93
2022/01/02 05:53:49;;;;;;;40.08;17.75;;;;;;;;;;4956729;28;20082;-94
2022/01/02 05:56:14;;;;;;;33.15;16.52;;;;;;;;;;4960973;29;20055;-93
2022/01/02 05:58:39;;;;;;;39.00;18.27;;;;;;;;;;4959559;28;20019;-93
2022/01/02 06:01:05;;;;;;;36.33;16.33;;;;;;;;;;4958565;29;20023;-93
2022/01/02 06:03:30;;;;;;;38.42;17.02;;;;;;;;;;4959143;28;20035;-93
2022/01/02 06:05:55;;;;;;;36.55;16.33;;;;;;;;;;4959487;29;20011;-93
2022/01/02 06:08:21;;;;;;;38.88;17.08;;;;;;;;;;4964014;28;20042;-93
2022/01/02 06:10:46;;;;;;;35.78;17.58;;;;;;;;;;4969042;29;20019;-93
2022/01/02 06:13:11;;;;;;;38.50;17.70;;;;;;;;;;4962870;28;20498;-93
2022/01/02 06:15:37;;;;;;;38.35;17.60;;;;;;;;;;4963192;29;20020;-94
2022/01/02 06:18:02;;;;;;;39.33;17.50;;;;;;;;;;4960003;28;20078;-93
2022/01/02 06:20:28;;;;;;;36.53;18.70;;;;;;;;;;4966893;28;20034;-94
2022/01/02 06:22:54;;;;;;;45.38;18.15;;;;;;;;;;4958284;28;20097;-93
2022/01/02 06:25:20;;;;;;;43.08;18.98;;;;;;;;;;4956341;29;20030;-93
2022/01/02 06:27:46;;;;;;;38.13;18.20;;;;;;;;;;4956641;28;20118;-93
2022/01/02 06:30:12;;;;;;;44.10;20.05;;;;;;;;;;4956867;29;20027;-93
2022/01/02 06:32:37;;;;;;;35.35;18.42;;;;;;;;;;4956764;29;20038;-93
2022/01/02 06:35:03;;;;;;;50.85;19.65;;;;;;;;;;4956571;28;20019;-93
2022/01/02 06:37:28;;;;;;;55.08;21.73;;;;;;;;;;4956612;29;20488;-93
2022/01/02 06:39:53;;;;;;;44.33;21.17;;;;;;;;;;4957365;28;20117;-93
2022/01/02 06:42:18;;;;;;;36.97;20.10;;;;;;;;;;4956473;29;20031;-93
2022/01/02 06:44:44;;;;;;;41.53;21.73;;;;;;;;;;4956598;28;20027;-93
2022/01/02 06:47:09;;;;;;;43.83;21.52;;;;;;;;;;4959679;29;20034;-93
2022/01/02 06:49:35;;;;;;;48.28;23.38;;;;;;;;;;4958170;28;20496;-93
2022/01/02 06:52:00;;;;;;;47.95;22.95;;;;;;;;;;4961234;29;20122;-93
2022/01/02 06:54:25;;;;;;;47.60;23.10;;;;;;;;;;4975149;28;20003;-93
2022/01/02 06:56:50;;;;;;;56.90;25.55;;;;;;;;;;4963400;28;20058;-93
2022/01/02 06:59:17;;;;;;;53.67;25.33;;;;;;;;;;4964162;28;20043;-93
2022/01/02 07:01:42;;;;;;;52.78;25.58;;;;;;;;;;4960849;29;20027;-93
2022/01/02 07:04:07;;;;;;;55.00;26.02;;;;;;;;;;4962231;28;20019;-93
2022/01/02 07:06:32;;;;;;;57.80;25.83;;;;;;;;;;4960197;29;20023;-93
2022/01/02 07:08:58;;;;;;;72.50;28.50;;;;;;;;;;4960286;28;20023;-93
2022/01/02 07:11:23;;;;;;;63.20;28.52;;;;;;;;;;4960468;29;20122;-93
2022/01/02 07:13:48;;;;;;;69.35;29.90;;;;;;;;;;4963703;28;20033;-94
2022/01/02 07:16:13;;;;;;;60.95;28.10;;;;;;;;;;4960465;29;20113;-93
2022/01/02 07:18:39;;;;;;;76.70;32.45;;;;;;;;;;4961476;28;20035;-93
2022/01/02 07:21:04;;;;;;;58.10;30.33;;;;;;;;;;4960736;29;20029;-93
2022/01/02 07:23:30;;;;;;;66.60;28.75;;;;;;;;;;4974330;28;20024;-94
2022/01/02 07:25:55;;;;;;;72.00;30.60;;;;;;;;;;4977267;28;20099;-94
2022/01/02 07:28:21;;;;;;;63.28;30.75;;;;;;;;;;4970351;28;20031;-93
2022/01/02 07:30:47;;;;;;;64.97;31.35;;;;;;;;;;4968738;28;20029;-94
2022/01/02 07:33:12;;;;;;;65.65;31.50;;;;;;;;;;4969634;28;20047;-93
2022/01/02 07:35:37;;;;;;;70.50;34.95;;;;;;;;;;4967863;29;20039;-93
2022/01/02 07:38:03;;;;;;;61.35;30.17;;;;;;;;;;4973546;28;20423;-93
2022/01/02 07:40:28;;;;;;;65.20;30.35;;;;;;;;;;4979988;28;20023;-93
2022/01/02 07:42:54;;;;;;;70.93;31.77;;;;;;;;;;4976615;28;20027;-94
2022/01/02 07:45:20;;;;;;;65.22;31.80;;;;;;;;;;4969284;29;20027;-94
2022/01/02 07:47:46;;;;;;;64.20;31.13;;;;;;;;;;4963196;28;20507;-94
2022/01/02 07:50:12;;;;;;;72.03;33.58;;;;;;;;;;4963661;29;20032;-93
2022/01/02 07:52:37;;;;;;;67.25;33.38;;;;;;;;;;4969168;29;20031;-94
2022/01/02 07:55:03;;;;;;;75.75;31.45;;;;;;;;;;4967490;28;20078;-94
2022/01/02 07:57:28;;;;;;;71.45;32.65;;;;;;;;;;4967066;28;20055;-94
2022/01/02 07:59:54;;;;;;;91.57;32.65;;;;;;;;;;4971279;28;20051;-93
2022/01/02 08:02:20;;;;;;;89.18;34.13;;;;;;;;;;4971662;28;20034;-94
2022/01/02 08:04:47;;;;;;;76.53;32.30;;;;;;;;;;4977113;28;20015;-94
2022/01/02 08:07:12;;;;;;;80.90;32.63;;;;;;;;;;4977395;28;20019;-94
2022/01/02 08:09:38;;;;;;;74.93;31.17;;;;;;;;;;4970980;28;20095;-94
2022/01/02 08:12:04;;;;;;;74.65;31.33;;;;;;;;;;4969736;29;20027;-94
2022/01/02 08:14:31;;;;;;;102.35;33.60;;;;;;;;;;4972428;28;20011;-94
2022/01/02 08:16:58;;;;;;;96.22;33.92;;;;;;;;;;5284239;23;20098;-94
2022/01/02 08:19:23;;;;;;;91.32;31.20;;;;;;;;;;4990251;28;20098;-93
2022/01/02 08:21:49;;;;;;;91.65;32.92;;;;;;;;;;4995706;28;20019;-94
2022/01/02 08:24:15;;;;;;;81.05;30.00;;;;;;;;;;4993137;28;20049;-93
2022/01/02 08:26:41;;;;;;;81.97;29.83;;;;;;;;;;4996461;28;20074;-94
2022/01/02 08:29:06;;;;;;;93.07;31.50;;;;;;;;;;4991630;28;20487;-93
2022/01/02 08:31:32;;;;;;;94.00;30.58;;;;;;;;;;4988436;28;20086;-93
2022/01/02 08:33:57;;;;;;;71.10;28.65;;;;;;;;;;4984652;28;20038;-93
2022/01/02 08:36:23;;;;;;;76.18;29.08;;;;;;;;;;4985697;28;20066;-93
2022/01/02 08:38:48;;;;;;;68.20;27.08;;;;;;;;;;4991297;28;20034;-94
2022/01/02 08:41:14;;;;;;;57.00;25.88;;;;;;;;;;4987367;28;20093;-94
2022/01/02 08:43:40;;;;;;;67.78;27.92;;;;;;;;;;4985454;28;20023;-93
2022/01/02 08:46:05;;;;;;;69.38;27.50;;;;;;;;;;4987949;28;20027;-93
2022/01/02 08:48:30;;;;;;;81.75;28.25;;;;;;;;;;4989085;28;20061;-93
2022/01/02 08:50:56;;;;;;;71.82;27.10;;;;;;;;;;4984607;28;20042;-93
2022/01/02 08:53:21;;;;;;;67.38;26.02;;;;;;;;;;4982277;28;20018;-93
2022/01/02 08:55:47;;;;;;;78.80;27.77;;;;;;;;;;4985806;28;20027;-93
2022/01/02 08:58:12;;;;;;;64.60;27.60;;;;;;;;;;4987050;28;20085;-93
2022/01/02 09:00:38;;;;;;;84.70;29.30;;;;;;;;;;4980931;28;20097;-93
2022/01/02 09:03:03;;;;;;;63.65;26.73;;;;;;;;;;4984976;28;20027;-93
2022/01/02 09:05:28;;;;;;;72.32;27.38;;;;;;;;;;4984047;28;20091;-93
2022/01/02 09:07:54;;;;;;;78.03;28.77;;;;;;;;;;4991881;28;20027;-94
2022/01/02 09:10:20;;;;;;;85.55;30.70;;;;;;;;;;4983091;28;20042;-94
2022/01/02 09:12:45;;;;;;;89.53;30.92;;;;;;;;;;4983787;28;20033;-93
2022/01/02 09:15:11;;;;;;;76.20;29.88;;;;;;;;;;4984457;28;20117;-93
2022/01/02 09:17:36;;;;;;;86.60;30.90;;;;;;;;;;4979727;28;20065;-92
2022/01/02 09:20:02;;;;;;;88.50;30.30;;;;;;;;;;4977194;28;20038;-92
2022/01/02 09:22:28;;;;;;;80.50;31.42;;;;;;;;;;4995357;28;20254;-92
2022/01/02 09:24:53;;;;;;;78.45;29.58;;;;;;;;;;4977834;28;20018;-92
2022/01/02 09:27:19;;;;;;;76.63;27.75;;;;;;;;;;4996138;28;20049;-93
2022/01/02 09:29:44;;;;;;;79.65;29.70;;;;;;;;;;4982373;28;20029;-92
2022/01/02 09:32:09;;;;;;;82.88;30.63;;;;;;;;;;5009845;28;20431;-92
2022/01/02 09:34:35;;;;;;;85.90;31.70;;;;;;;;;;4978226;28;20010;-92
2022/01/02 09:37:01;;;;;;;80.05;30.63;;;;;;;;;;4978967;28;20030;-92
2022/01/02 09:39:26;;;;;;;62.95;28.75;;;;;;;;;;4976628;28;20034;-92
2022/01/02 09:41:53;;;;;;;74.22;31.58;;;;;;;;;;4976485;28;20025;-93
2022/01/02 09:44:18;;;;;;;80.28;31.45;;;;;;;;;;4977688;28;20022;-92
2022/01/02 09:46:44;;;;;;;70.75;31.48;;;;;;;;;;4977290;28;20022;-93
2022/01/02 09:49:09;;;;;;;63.97;30.55;;;;;;;;;;4977352;28;20026;-93
2022/01/02 09:51:35;;;;;;;56.05;29.63;;;;;;;;;;4977018;28;20022;-93
2022/01/02 09:54:00;;;;;;;55.58;27.35;;;;;;;;;;4994122;28;20030;-92
2022/01/02 09:56:25;;;;;;;48.20;26.67;;;;;;;;;;4977316;28;20018;-93
2022/01/02 09:58:51;;;;;;;39.53;24.63;;;;;;;;;;4977472;28;20038;-93
2022/01/02 20:30:56;;;;;;;62.60;9.68;;;;;;;;;;5839780;23;20025;31
2022/01/02 20:44:36;;;;;;;39.40;9.68;;;;;;;;;;5019159;28;20494;-94
2022/01/02 20:49:59;;;;;;;61.30;8.95;;;;;;;;;;3003609;23;20215;-92
2022/01/02 20:55:01;;;;;;;49.80;7.90;;;;;;;;;;5115785;23;20078;-94
2022/01/02 21:08:38;;;;;;;62.67;9.63;;;;;;;;;;1412251;23;20240;-94
2022/01/02 21:11:24;;;;;;;61.80;9.75;;;;;;;;;;4956371;29;20051;-94
2022/01/02 21:38:52;;;;;;;60.17;9.95;;;;;;;;;;1495921;23;20361;-93
2022/01/02 21:52:54;;;;;;;80.80;12.35;;;;;;;;;;4929423;29;20069;-93
2022/01/02 22:06:42;;;;;;;68.97;11.33;;;;;;;;;;5730206;23;20144;-93
2022/01/02 22:16:49;;;;;;;60.55;9.82;;;;;;;;;;4932396;28;20076;-94
2022/01/02 23:12:06;;;;;;;67.57;10.20;;;;;;;;;;3739686;23;20207;-92
2022/01/02 23:24:48;;;;;;;51.22;11.40;;;;;;;;;;4999164;23;20034;-95
2022/01/02 23:27:15;;;;;;;56.05;11.45;;;;;;;;;;4978362;28;20086;-95
2022/01/02 23:59:32;;;;;;;55.80;12.27;;;;;;;;;;5113430;23;20584;-94
